TPOK1: Kansas River, State-Line, KS

                                SHEF ID:       TPOK1     MARAIS DES CYGNES R NR KS-MO ST
STATION TYPE:

STAGE STAGE(2) RIV-FLOW BAT-LOAD
ft ft cfs volt
Ccp-Rev Ccp-Rev Ccp-Rev Ccp-Rev
(America/Chicago)
07/18 00:00 6.39 6.32 1166 12.50
07/18 01:00 6.36 6.27 1149 12.51
07/18 02:00 6.31 6.30 1120 12.47
07/18 03:00 6.31 6.25 1120 12.44
07/18 04:00 6.28 6.23 1104 12.44
07/18 05:00 6.26 6.22 1092 12.42
07/18 06:00 6.23 6.21 1076 12.40
07/18 07:00 6.22 6.16 1070 12.38
07/18 08:00 6.20 6.14 1059 12.42
07/18 09:00 6.19 6.11 1054 12.73
07/18 10:00 6.15 6.13 1032 13.19
07/18 11:00 6.12 6.08 1016 12.96
07/18 12:00 6.16 6.06 1038 13.39
07/18 13:00 6.12 6.04 1016 13.29
07/18 14:00 6.09 6.03 1000 13.25
07/18 15:00 6.09 6.00 1000 13.06
07/18 16:00 6.05 6.02 979 12.97
07/18 17:00 6.06 5.99 984 12.86
07/18 18:00 6.04 5.99 973 12.77
07/18 19:00 6.06 5.99 984 12.72
07/18 20:00 6.03 5.99 968 12.61
07/18 21:00 6.05 5.97 979 12.57
07/18 22:00 6.00 6.00 952 12.57
07/18 23:00 6.03 5.98 968 12.53
Data processed at Sun 19Jul2026 04:52 GMT

NOTICE: If you are parsing this page

Please convert to using our Data API. Starting early 2026 we will be migrating to: https://water.usace.army.mil with modern pages rendered in JavaScript. When this migration completes you will no longer be able to scrape this page! CWMSDataAPI (CDA)

Timeseries IDs (TSIDs)

TSIDs used from left to right in the data table
MKSL.Stage.Inst.1Hour.0.Ccp-Rev
MKSL.Stage-Alt.Inst.1Hour.0.Ccp-Rev
MKSL.Flow.Inst.1Hour.0.Ccp-Rev
MKSL.Volt-Battery Load.Inst.1Hour.0.Ccp-Rev

                            

All information presented herein is the property of the government of the United States of America and may be revised or deleted at any time without prior notice. Dissemination of this information without the expressed written consent of the Public Affairs Office, Tulsa District U.S. Army Corps of Engineers is strictly prohibited. These data are gathered electronically and, as presented, have NOT undergone any form of quality control. These data are NOT guaranteed to be valid or correct.